Time;durP1;ratioP1;P1;durP2;ratioP2;P2;SDS_P1;SDS_P2;PMS_P1;PMS_P2;Temp;Humidity;BMP_temperature;BMP_pressure;BME280_temperature;BME280_humidity;BME280_pressure;Samples;Min_cycle;Max_cycle;Signal;HPM_P1;HPM_P2
2020/12/15 00:00:26;;;;;;;3.23;1.67;;;10.90;99.90;;;;;;5075963;28;20515;-76
2020/12/15 00:02:52;;;;;;;5.13;1.70;;;10.90;99.90;;;;;;5072925;28;20666;-78
2020/12/15 00:05:18;;;;;;;3.47;1.70;;;10.90;99.90;;;;;;5077387;28;20718;-78
2020/12/15 00:07:45;;;;;;;3.07;1.80;;;10.90;99.90;;;;;;5074008;28;20198;-77
2020/12/15 00:10:12;;;;;;;2.17;1.57;;;11.00;99.90;;;;;;5074200;28;20295;-76
2020/12/15 00:12:38;;;;;;;2.90;1.70;;;10.90;99.90;;;;;;5074321;28;20318;-77
2020/12/15 00:15:04;;;;;;;2.47;1.70;;;10.80;99.90;;;;;;5075464;28;20662;-77
2020/12/15 00:17:31;;;;;;;1.83;1.40;;;10.80;99.90;;;;;;5073179;28;20209;-76
2020/12/15 00:19:57;;;;;;;2.70;2.00;;;10.80;99.90;;;;;;5072066;28;20568;-76
2020/12/15 00:22:23;;;;;;;2.10;1.63;;;10.70;99.90;;;;;;5071894;28;20241;-75
2020/12/15 00:24:50;;;;;;;3.07;1.70;;;10.80;99.90;;;;;;5081363;28;20213;-77
2020/12/15 00:27:17;;;;;;;3.63;1.73;;;10.80;99.90;;;;;;5092203;28;20223;-76
2020/12/15 00:29:43;;;;;;;5.20;1.90;;;10.80;99.90;;;;;;5091271;28;20202;-78
2020/12/15 00:32:10;;;;;;;2.50;1.50;;;10.80;99.90;;;;;;5092414;28;20229;-76
2020/12/15 00:34:36;;;;;;;2.47;1.70;;;10.80;99.90;;;;;;5091541;28;20202;-77
2020/12/15 00:37:03;;;;;;;3.57;1.53;;;10.90;99.90;;;;;;5092149;28;20199;-77
2020/12/15 00:39:29;;;;;;;2.97;1.70;;;10.80;99.90;;;;;;5092039;28;20216;-78
2020/12/15 00:41:56;;;;;;;3.40;1.80;;;10.70;99.90;;;;;;5092287;28;20215;-74
2020/12/15 00:44:23;;;;;;;3.30;1.50;;;10.60;99.90;;;;;;5091216;28;20219;-76
2020/12/15 00:46:50;;;;;;;4.60;1.67;;;10.60;99.90;;;;;;5091701;28;20608;-76
2020/12/15 00:49:17;;;;;;;3.90;1.63;;;10.60;99.90;;;;;;5091966;28;20205;-74
2020/12/15 00:51:43;;;;;;;4.13;1.67;;;10.70;99.90;;;;;;5092224;28;20224;-77
2020/12/15 00:54:09;;;;;;;2.00;1.70;;;10.80;99.90;;;;;;5092005;28;20730;-75
2020/12/15 00:56:39;;;;;;;2.10;1.73;;;10.90;99.90;;;;;;5091963;28;20205;-76
2020/12/15 00:59:06;;;;;;;3.27;1.80;;;10.80;99.90;;;;;;5091487;28;20296;-75
2020/12/15 01:01:33;;;;;;;2.93;1.70;;;10.80;99.90;;;;;;5092544;28;20241;-75
2020/12/15 01:03:59;;;;;;;3.20;1.80;;;10.80;99.90;;;;;;5091470;28;20285;-74
2020/12/15 01:06:25;;;;;;;3.37;1.90;;;10.80;99.90;;;;;;5084897;28;20212;-75
2020/12/15 01:08:52;;;;;;;4.13;1.80;;;10.90;99.90;;;;;;5085370;28;20207;-76
2020/12/15 01:11:19;;;;;;;5.63;2.03;;;10.80;99.90;;;;;;5091708;28;20225;-74
2020/12/15 01:13:45;;;;;;;2.43;1.93;;;10.80;99.90;;;;;;5092556;28;20237;-75
2020/12/15 01:16:12;;;;;;;2.80;1.73;;;10.80;99.90;;;;;;5091903;28;20211;-76
2020/12/15 01:18:39;;;;;;;1.77;1.47;;;10.80;99.90;;;;;;5091834;28;20291;-74
2020/12/15 01:21:05;;;;;;;2.47;1.60;;;10.90;99.90;;;;;;5092199;28;20211;-75
2020/12/15 01:23:32;;;;;;;2.90;1.83;;;10.90;99.90;;;;;;5093568;28;20291;-76
2020/12/15 01:25:58;;;;;;;3.30;2.10;;;10.90;99.90;;;;;;5095744;28;20675;-76
2020/12/15 01:28:24;;;;;;;2.37;1.90;;;11.00;99.90;;;;;;5095900;28;20531;-75
2020/12/15 01:30:51;;;;;;;2.33;1.80;;;11.00;99.90;;;;;;5096176;28;20205;-76
2020/12/15 01:33:17;;;;;;;3.07;1.93;;;10.90;99.90;;;;;;5095599;28;20285;-75
2020/12/15 01:35:45;;;;;;;3.17;2.03;;;11.00;99.90;;;;;;5096214;28;20296;-74
2020/12/15 01:38:12;;;;;;;1.97;1.77;;;10.90;99.90;;;;;;5095241;28;20292;-75
2020/12/15 01:40:38;;;;;;;3.10;2.00;;;10.80;99.90;;;;;;5095753;28;20685;-74
2020/12/15 01:43:04;;;;;;;4.03;2.17;;;10.80;99.90;;;;;;5095697;28;20299;-77
2020/12/15 01:45:31;;;;;;;2.70;1.70;;;10.80;99.90;;;;;;5096074;28;20193;-76
2020/12/15 01:47:57;;;;;;;3.40;1.90;;;10.80;99.90;;;;;;5095511;28;20664;-75
2020/12/15 01:50:23;;;;;;;3.03;2.10;;;10.80;99.90;;;;;;5096048;28;20199;-75
2020/12/15 01:52:51;;;;;;;3.37;2.13;;;10.90;99.90;;;;;;5095260;28;20229;-77
2020/12/15 01:55:18;;;;;;;3.70;1.80;;;11.00;99.90;;;;;;5095440;28;20207;-75
2020/12/15 01:57:45;;;;;;;3.27;1.97;;;10.90;99.90;;;;;;5095567;28;20198;-75
2020/12/15 02:00:12;;;;;;;2.10;1.90;;;10.90;99.90;;;;;;5095484;28;20292;-75
2020/12/15 02:02:40;;;;;;;3.33;2.10;;;10.90;99.90;;;;;;5095478;28;20280;-75
2020/12/15 02:05:08;;;;;;;3.07;1.87;;;10.90;99.90;;;;;;5095354;28;20605;-75
2020/12/15 02:07:35;;;;;;;4.13;2.30;;;10.90;99.90;;;;;;5081380;28;20259;-75
2020/12/15 02:10:03;;;;;;;3.50;2.10;;;11.00;99.90;;;;;;5095642;28;20208;-76
2020/12/15 02:12:29;;;;;;;4.40;2.23;;;11.00;99.90;;;;;;5095504;28;20221;-74
2020/12/15 02:14:55;;;;;;;4.50;2.23;;;10.90;99.90;;;;;;5095023;28;20201;-75
2020/12/15 02:17:22;;;;;;;2.83;2.23;;;10.90;99.90;;;;;;5095514;28;20199;-75
2020/12/15 02:19:59;;;;;;;2.47;2.00;;;10.90;99.90;;;;;;5095079;28;20216;-75
2020/12/15 02:22:26;;;;;;;2.67;2.03;;;10.90;99.90;;;;;;5095308;28;20201;-74
2020/12/15 02:24:52;;;;;;;3.03;2.00;;;10.90;99.90;;;;;;5094899;28;20228;-75
2020/12/15 02:27:19;;;;;;;3.10;1.97;;;10.90;99.90;;;;;;5095267;28;20230;-75
2020/12/15 02:29:45;;;;;;;4.27;2.07;;;10.90;99.90;;;;;;5094847;28;20207;-74
2020/12/15 02:32:11;;;;;;;3.40;2.20;;;10.80;99.90;;;;;;5095130;28;20231;-74
2020/12/15 02:34:38;;;;;;;2.13;1.70;;;10.80;99.90;;;;;;5094854;28;20201;-75
2020/12/15 02:37:07;;;;;;;4.53;2.20;;;10.80;99.90;;;;;;5094864;28;20650;-74
2020/12/15 02:39:34;;;;;;;3.27;2.00;;;10.80;99.90;;;;;;5094800;28;20256;-74
2020/12/15 02:42:01;;;;;;;3.93;1.97;;;10.80;99.90;;;;;;5081093;28;20209;-74
2020/12/15 02:44:27;;;;;;;4.13;2.03;;;10.80;99.90;;;;;;5094462;28;20197;-75
2020/12/15 02:46:54;;;;;;;2.57;1.87;;;10.80;99.90;;;;;;5094552;28;20560;-74
2020/12/15 02:49:20;;;;;;;2.20;1.90;;;10.70;99.90;;;;;;5094124;28;20213;-74
2020/12/15 02:51:48;;;;;;;2.43;2.00;;;10.70;99.90;;;;;;5094390;28;20232;-74
2020/12/15 02:54:15;;;;;;;2.37;1.97;;;10.80;99.90;;;;;;5094344;28;20707;-74
2020/12/15 02:56:42;;;;;;;5.37;2.20;;;10.80;99.90;;;;;;5093281;28;20197;-74
2020/12/15 02:59:09;;;;;;;3.47;2.07;;;10.80;99.90;;;;;;5080249;28;20203;-75
2020/12/15 03:01:39;;;;;;;3.97;2.30;;;10.90;99.90;;;;;;5094408;28;20568;-74
2020/12/15 03:04:06;;;;;;;3.50;2.07;;;10.90;99.90;;;;;;5093631;28;20209;-74
2020/12/15 03:06:32;;;;;;;3.37;2.30;;;10.90;99.90;;;;;;5094676;28;20201;-75
2020/12/15 03:08:59;;;;;;;6.40;2.60;;;10.90;99.90;;;;;;5093981;28;20195;-75
2020/12/15 03:11:25;;;;;;;4.27;2.23;;;11.00;99.90;;;;;;5094651;28;20213;-74
2020/12/15 03:13:52;;;;;;;5.03;2.30;;;11.00;99.90;;;;;;5093951;28;20292;-76
2020/12/15 03:16:20;;;;;;;5.77;2.53;;;11.00;99.90;;;;;;5094612;28;20201;-76
2020/12/15 03:18:46;;;;;;;5.30;2.53;;;10.90;99.90;;;;;;5093518;28;20209;-75
2020/12/15 03:21:15;;;;;;;3.97;2.17;;;11.00;99.90;;;;;;5094151;28;20654;-75
2020/12/15 03:23:42;;;;;;;6.30;2.70;;;11.00;99.90;;;;;;5093556;28;20255;-76
2020/12/15 03:26:08;;;;;;;3.57;2.30;;;11.10;99.90;;;;;;5093962;28;20209;-75
2020/12/15 03:28:35;;;;;;;4.07;2.37;;;11.10;99.90;;;;;;5093845;28;20202;-74
2020/12/15 03:31:02;;;;;;;6.43;2.60;;;11.10;99.90;;;;;;5093423;28;20282;-74
2020/12/15 03:33:28;;;;;;;4.33;2.60;;;11.10;99.90;;;;;;5093445;28;20573;-75
2020/12/15 03:35:55;;;;;;;3.07;2.40;;;11.10;99.90;;;;;;5093579;28;20658;-76
2020/12/15 03:38:21;;;;;;;4.27;2.30;;;11.10;99.90;;;;;;5093723;28;20210;-74
2020/12/15 03:40:47;;;;;;;3.63;2.53;;;11.00;99.90;;;;;;5093658;28;20297;-75
2020/12/15 03:43:13;;;;;;;2.20;2.00;;;11.00;99.90;;;;;;5093372;28;20291;-74
2020/12/15 03:45:43;;;;;;;3.23;2.50;;;11.00;99.90;;;;;;5093073;28;20211;-76
2020/12/15 03:48:11;;;;;;;3.20;2.23;;;10.90;99.90;;;;;;5093542;28;20195;-75
2020/12/15 03:50:37;;;;;;;4.53;2.53;;;11.00;99.90;;;;;;5093817;28;20285;-77
2020/12/15 03:53:04;;;;;;;4.50;2.50;;;11.00;99.90;;;;;;5092927;28;20229;-74
2020/12/15 03:55:30;;;;;;;4.03;2.40;;;11.10;99.90;;;;;;5093396;28;20637;-74
2020/12/15 03:57:57;;;;;;;4.37;2.67;;;11.00;99.90;;;;;;5092805;28;20260;-75
2020/12/15 04:00:24;;;;;;;3.33;2.50;;;11.10;99.90;;;;;;5093279;28;20202;-76
2020/12/15 04:02:51;;;;;;;4.07;2.57;;;11.10;99.90;;;;;;5092689;28;20200;-76
2020/12/15 04:05:18;;;;;;;5.17;2.70;;;11.10;99.90;;;;;;5093459;28;20208;-74
2020/12/15 04:07:44;;;;;;;3.07;2.57;;;11.10;99.90;;;;;;5093154;28;20640;-74
2020/12/15 04:10:11;;;;;;;3.93;2.80;;;11.00;99.90;;;;;;5093450;28;20215;-75
2020/12/15 04:12:37;;;;;;;6.13;2.93;;;10.90;99.90;;;;;;5092431;28;20595;-76
2020/12/15 04:15:05;;;;;;;4.93;3.10;;;10.90;99.90;;;;;;5085360;28;20260;-75
2020/12/15 04:17:36;;;;;;;4.10;2.90;;;11.00;99.90;;;;;;5092558;28;20564;-75
2020/12/15 04:20:04;;;;;;;3.53;2.87;;;11.00;99.90;;;;;;5093033;28;20219;-74
2020/12/15 04:22:31;;;;;;;3.40;2.63;;;11.00;99.90;;;;;;5092377;28;20209;-74
2020/12/15 04:24:57;;;;;;;4.87;3.00;;;10.90;99.90;;;;;;5089052;28;20208;-75
2020/12/15 04:27:24;;;;;;;5.70;3.03;;;10.80;99.90;;;;;;5091812;28;20197;-74
2020/12/15 04:29:50;;;;;;;5.00;2.93;;;10.80;99.90;;;;;;5083755;28;20201;-74
2020/12/15 04:32:16;;;;;;;4.40;2.63;;;10.90;99.90;;;;;;5091494;28;20218;-74
2020/12/15 04:34:43;;;;;;;3.97;2.73;;;11.00;99.90;;;;;;5088263;28;20197;-75
2020/12/15 04:37:09;;;;;;;3.90;2.83;;;10.90;99.90;;;;;;5092539;28;20211;-74
2020/12/15 04:39:36;;;;;;;3.97;2.70;;;11.00;99.90;;;;;;5092127;28;20194;-75
2020/12/15 04:42:03;;;;;;;4.97;2.83;;;11.00;99.90;;;;;;5092220;28;20210;-74
2020/12/15 04:44:30;;;;;;;3.57;2.70;;;11.00;99.90;;;;;;5091994;28;20195;-76
2020/12/15 04:47:06;;;;;;;5.60;2.60;;;10.90;99.90;;;;;;5092798;28;20294;-74
2020/12/15 04:49:46;;;;;;;3.57;2.70;;;11.00;99.90;;;;;;5091111;28;20677;-75
2020/12/15 04:52:20;;;;;;;2.93;2.40;;;10.90;99.90;;;;;;5092299;28;20231;-75
2020/12/15 04:54:49;;;;;;;4.00;2.57;;;10.90;99.90;;;;;;5092044;28;20208;-75
2020/12/15 04:57:19;;;;;;;3.90;2.60;;;10.80;99.90;;;;;;5092207;28;20255;-77
2020/12/15 04:59:48;;;;;;;3.73;2.50;;;11.00;99.90;;;;;;5092644;28;20203;-75
2020/12/15 05:02:15;;;;;;;4.50;3.00;;;10.90;99.90;;;;;;5097429;28;20594;-74
2020/12/15 05:04:42;;;;;;;4.97;2.80;;;10.90;99.90;;;;;;5096742;28;20219;-77
2020/12/15 05:07:10;;;;;;;4.43;2.70;;;11.00;99.90;;;;;;5097388;28;20292;-75
2020/12/15 05:09:37;;;;;;;3.77;2.90;;;11.00;99.90;;;;;;5097141;28;20742;-76
2020/12/15 05:12:05;;;;;;;3.67;2.77;;;11.00;99.90;;;;;;5098074;28;20225;-76
2020/12/15 05:14:31;;;;;;;3.03;2.43;;;10.90;99.90;;;;;;5098636;28;20225;-77
2020/12/15 05:16:58;;;;;;;5.50;2.77;;;10.90;99.90;;;;;;5094563;28;20215;-76
2020/12/15 05:19:24;;;;;;;4.77;2.97;;;10.90;99.90;;;;;;5091947;28;20288;-74
2020/12/15 05:21:57;;;;;;;4.37;2.40;;;10.90;99.90;;;;;;5092206;28;20273;-74
2020/12/15 05:24:26;;;;;;;4.60;2.60;;;10.80;99.90;;;;;;5091984;28;20211;-75
2020/12/15 05:26:54;;;;;;;3.93;2.50;;;10.80;99.90;;;;;;5090916;28;20213;-75
2020/12/15 05:29:22;;;;;;;4.67;2.80;;;10.80;99.90;;;;;;5091368;28;20225;-76
2020/12/15 05:31:49;;;;;;;4.90;2.97;;;10.90;99.90;;;;;;5091512;28;20214;-74
2020/12/15 05:34:22;;;;;;;2.93;2.50;;;10.90;99.90;;;;;;5091253;28;20205;-75
2020/12/15 05:36:54;;;;;;;4.43;2.70;;;10.90;99.90;;;;;;5091668;28;20205;-75
2020/12/15 05:39:21;;;;;;;5.83;3.00;;;10.90;99.90;;;;;;5091750;28;20201;-75
2020/12/15 05:41:49;;;;;;;4.67;2.43;;;10.80;99.90;;;;;;5091961;28;20273;-75
2020/12/15 05:44:26;;;;;;;5.00;2.50;;;10.90;99.90;;;;;;5089443;28;20206;-75
2020/12/15 05:46:58;;;;;;;5.60;2.67;;;11.00;99.90;;;;;;5084211;28;20258;-75
2020/12/15 05:49:27;;;;;;;4.87;2.73;;;10.90;99.90;;;;;;5091124;28;20283;-75
2020/12/15 05:51:54;;;;;;;3.67;2.57;;;11.00;99.90;;;;;;5091444;28;20225;-75
2020/12/15 05:54:20;;;;;;;3.87;2.30;;;11.00;99.90;;;;;;5091101;28;20231;-74
2020/12/15 05:56:47;;;;;;;4.63;2.40;;;11.00;99.90;;;;;;5091728;28;20208;-75
2020/12/15 05:59:18;;;;;;;3.53;2.40;;;11.00;99.90;;;;;;5090637;28;20205;-75
2020/12/15 06:01:50;;;;;;;5.23;2.40;;;11.00;99.90;;;;;;5091691;28;20201;-76
2020/12/15 06:04:17;;;;;;;3.87;2.63;;;10.90;99.90;;;;;;5091092;28;20203;-75
2020/12/15 06:06:44;;;;;;;5.87;2.50;;;10.90;99.90;;;;;;5092055;28;20201;-76
2020/12/15 06:09:12;;;;;;;5.77;2.63;;;10.90;99.90;;;;;;5092288;28;20201;-76
2020/12/15 06:11:40;;;;;;;3.50;2.30;;;10.80;99.90;;;;;;5094164;28;20306;-76
2020/12/15 06:14:07;;;;;;;3.53;2.30;;;10.90;99.90;;;;;;5094116;28;20201;-76
2020/12/15 06:16:34;;;;;;;3.60;2.27;;;10.90;99.90;;;;;;5086575;28;20213;-75
2020/12/15 06:19:05;;;;;;;2.77;1.87;;;10.80;99.90;;;;;;5088747;28;20270;-75
2020/12/15 06:21:31;;;;;;;3.70;1.90;;;10.70;99.90;;;;;;5091794;28;20246;-76
2020/12/15 06:24:02;;;;;;;3.03;1.93;;;10.70;99.90;;;;;;5093896;28;20206;-76
2020/12/15 06:26:31;;;;;;;3.80;2.10;;;10.70;99.90;;;;;;5090602;28;20229;-75
2020/12/15 06:29:07;;;;;;;3.67;2.03;;;10.80;99.90;;;;;;5085612;28;20606;-77
2020/12/15 06:31:34;;;;;;;3.23;2.00;;;10.80;99.90;;;;;;5082203;28;20286;-76
2020/12/15 06:34:02;;;;;;;4.93;1.93;;;10.80;99.90;;;;;;5092562;28;20686;-77
2020/12/15 06:36:30;;;;;;;3.00;1.80;;;10.80;99.90;;;;;;5093136;28;20327;-75
2020/12/15 06:38:58;;;;;;;3.22;2.00;;;10.80;99.90;;;;;;5086197;28;20448;-76
2020/12/15 06:41:25;;;;;;;3.07;1.80;;;10.70;99.90;;;;;;5085676;28;20300;-77
2020/12/15 06:43:52;;;;;;;3.10;1.70;;;10.80;99.90;;;;;;5086677;28;20201;-75
2020/12/15 06:46:28;;;;;;;2.50;1.60;;;10.90;99.90;;;;;;5085886;28;20199;-76
2020/12/15 06:48:55;;;;;;;1.77;1.43;;;10.90;99.90;;;;;;5082833;28;20202;-80
2020/12/15 06:51:29;;;;;;;1.77;1.40;;;10.80;99.90;;;;;;5092152;28;20748;-77
2020/12/15 06:54:01;;;;;;;4.10;1.60;;;10.80;99.90;;;;;;5093410;28;20690;-78
2020/12/15 06:56:29;;;;;;;3.67;1.95;;;10.80;99.90;;;;;;5092930;28;20440;-77
2020/12/15 06:59:00;;;;;;;4.43;1.70;;;10.70;99.90;;;;;;5093530;28;20200;-75
2020/12/15 07:01:27;;;;;;;3.83;1.70;;;10.80;99.90;;;;;;5088817;28;20212;-76
2020/12/15 07:03:56;;;;;;;3.63;1.50;;;10.80;99.90;;;;;;5089975;28;20207;-77
2020/12/15 07:06:23;;;;;;;2.80;1.30;;;10.80;99.90;;;;;;5084231;28;20665;-78
2020/12/15 07:09:01;;;;;;;3.33;1.53;;;10.80;99.90;;;;;;5085591;28;20288;-77
2020/12/15 07:11:29;;;;;;;2.13;1.60;;;10.80;99.90;;;;;;5093726;28;20289;-78
2020/12/15 07:13:56;;;;;;;2.27;1.20;;;10.80;99.90;;;;;;5093876;28;20288;-78
2020/12/15 07:16:23;;;;;;;2.63;1.40;;;10.80;99.90;;;;;;5093852;28;20199;-78
2020/12/15 07:18:50;;;;;;;1.90;1.40;;;10.90;99.90;;;;;;5094157;28;20211;-77
2020/12/15 07:21:17;;;;;;;1.93;1.60;;;10.90;99.90;;;;;;5092903;28;20727;-77
2020/12/15 07:23:44;;;;;;;1.80;1.47;;;10.80;99.90;;;;;;5093689;28;20205;-78
2020/12/15 07:26:13;;;;;;;2.23;1.63;;;10.90;99.90;;;;;;5093661;28;20224;-77
2020/12/15 07:28:41;;;;;;;2.37;1.40;;;10.90;99.90;;;;;;5093508;28;20196;-81
2020/12/15 07:31:07;;;;;;;2.00;1.23;;;10.90;99.90;;;;;;5093365;28;20275;-80
2020/12/15 07:33:34;;;;;;;2.53;1.37;;;11.00;99.90;;;;;;5092784;28;20315;-80
2020/12/15 07:36:11;;;;;;;3.23;1.47;;;11.00;99.90;;;;;;5090808;28;20297;-80
2020/12/15 07:38:39;;;;;;;3.00;1.60;;;11.00;99.90;;;;;;5085100;28;20261;-82
2020/12/15 07:41:14;;;;;;;1.67;1.30;;;11.00;99.90;;;;;;5084385;28;20642;-80
2020/12/15 07:43:50;;;;;;;3.60;1.70;;;11.00;99.90;;;;;;5073369;28;20205;-81
2020/12/15 07:46:17;;;;;;;3.67;1.70;;;11.00;99.90;;;;;;5073360;28;20215;-81
2020/12/15 07:48:45;;;;;;;2.80;1.37;;;10.90;99.90;;;;;;5073522;28;20328;-80
2020/12/15 07:51:11;;;;;;;2.87;1.80;;;11.00;99.90;;;;;;5075775;28;20199;-80
2020/12/15 07:53:38;;;;;;;4.33;1.80;;;11.00;99.90;;;;;;5092344;28;20248;-79
2020/12/15 07:56:04;;;;;;;3.10;1.80;;;11.00;99.90;;;;;;5092353;28;20646;-80
2020/12/15 07:58:33;;;;;;;2.87;1.80;;;11.10;99.90;;;;;;5092810;28;20194;-79
2020/12/15 08:00:59;;;;;;;2.07;1.60;;;11.10;99.90;;;;;;5089355;28;20205;-79
2020/12/15 08:03:26;;;;;;;2.63;1.90;;;11.20;99.90;;;;;;5092381;28;20206;-79
2020/12/15 08:05:52;;;;;;;3.57;1.80;;;11.20;99.90;;;;;;5089701;28;20198;-79
2020/12/15 08:08:20;;;;;;;2.57;1.90;;;11.30;99.90;;;;;;5077125;28;20685;-79
2020/12/15 08:10:46;;;;;;;4.47;1.80;;;11.30;99.90;;;;;;5092653;28;20209;-80
2020/12/15 08:13:13;;;;;;;3.93;2.10;;;11.20;99.90;;;;;;5073489;28;20780;-79
2020/12/15 08:15:41;;;;;;;5.43;1.57;;;11.30;99.90;;;;;;5076695;28;20210;-79
2020/12/15 08:18:09;;;;;;;3.97;2.20;;;11.30;99.90;;;;;;5092746;28;20288;-81
2020/12/15 08:20:36;;;;;;;2.53;1.90;;;11.30;99.90;;;;;;5093311;28;20209;-80
2020/12/15 08:23:06;;;;;;;4.50;2.10;;;11.50;99.90;;;;;;5092736;28;20201;-80
2020/12/15 08:25:33;;;;;;;2.50;2.10;;;11.40;99.90;;;;;;5092665;28;20217;-80
2020/12/15 08:28:10;;;;;;;3.43;1.87;;;11.40;99.90;;;;;;5092472;28;20254;-80
2020/12/15 08:30:37;;;;;;;3.77;2.50;;;11.40;99.90;;;;;;5081251;28;20259;-79
2020/12/15 08:33:04;;;;;;;3.60;2.30;;;11.40;99.90;;;;;;5083903;28;20217;-80
2020/12/15 08:35:31;;;;;;;5.60;2.40;;;11.50;99.90;;;;;;5091830;28;20289;-80
2020/12/15 08:37:59;;;;;;;3.10;2.00;;;11.50;99.90;;;;;;5092593;28;20213;-80
2020/12/15 08:40:28;;;;;;;5.27;2.33;;;11.50;99.90;;;;;;5091906;28;20222;-80
2020/12/15 08:42:59;;;;;;;5.13;2.50;;;11.50;99.90;;;;;;5089375;28;20222;-79
2020/12/15 08:45:26;;;;;;;4.50;2.80;;;11.60;99.90;;;;;;5089612;28;20544;-79
2020/12/15 08:47:54;;;;;;;4.40;2.60;;;11.60;99.90;;;;;;5092097;28;20270;-80
2020/12/15 08:50:25;;;;;;;5.03;3.10;;;11.60;99.90;;;;;;5080259;28;20204;-79
2020/12/15 08:52:52;;;;;;;5.97;2.70;;;11.60;99.90;;;;;;5077660;28;20229;-82
2020/12/15 08:55:27;;;;;;;4.32;3.22;;;11.60;99.90;;;;;;5083882;28;20417;-80
2020/12/15 08:57:58;;;;;;;4.60;2.80;;;11.60;99.90;;;;;;5083022;28;20665;-79
2020/12/15 09:00:24;;;;;;;4.60;2.90;;;11.70;99.90;;;;;;5083624;28;20219;-81
2020/12/15 09:02:51;;;;;;;6.00;3.43;;;11.80;99.90;;;;;;5087910;28;20234;-80
2020/12/15 09:05:17;;;;;;;6.00;3.37;;;11.70;99.90;;;;;;5087898;28;20291;-80
2020/12/15 09:07:44;;;;;;;7.50;3.43;;;11.70;99.90;;;;;;5086678;28;20573;-80
2020/12/15 09:10:19;;;;;;;4.90;3.40;;;11.80;99.90;;;;;;5085935;28;20199;-80
2020/12/15 09:12:46;;;;;;;5.13;3.10;;;11.70;99.90;;;;;;5086253;28;20213;-80
2020/12/15 09:15:13;;;;;;;6.63;3.90;;;11.60;99.90;;;;;;5092322;28;20203;-82
2020/12/15 09:17:41;;;;;;;5.30;3.50;;;11.60;99.90;;;;;;5091385;28;20225;-82
2020/12/15 09:20:09;;;;;;;5.43;3.80;;;11.60;99.90;;;;;;5085343;28;20884;-82
2020/12/15 09:22:37;;;;;;;5.47;3.70;;;11.70;99.90;;;;;;5091651;28;20281;-79
2020/12/15 09:25:14;;;;;;;7.93;3.80;;;11.70;99.90;;;;;;5089002;28;20214;-81
2020/12/15 09:27:45;;;;;;;6.23;4.07;;;11.70;99.90;;;;;;5087628;28;20616;-83
2020/12/15 09:30:13;;;;;;;7.27;3.90;;;11.70;99.90;;;;;;5079561;28;20643;-81
2020/12/15 09:32:43;;;;;;;5.43;3.90;;;11.60;99.90;;;;;;5091210;28;20237;-83
2020/12/15 09:35:10;;;;;;;6.70;3.93;;;11.50;99.90;;;;;;5085670;28;20248;-81
2020/12/15 09:37:39;;;;;;;6.93;4.50;;;11.50;99.90;;;;;;5091240;28;20966;-81
2020/12/15 09:40:08;;;;;;;6.50;4.30;;;11.60;99.90;;;;;;5088843;28;20261;-81
2020/12/15 09:42:36;;;;;;;5.30;4.23;;;11.50;99.90;;;;;;5088785;28;20216;-80
2020/12/15 09:45:04;;;;;;;6.70;4.70;;;11.50;99.90;;;;;;5094005;28;20292;-79
2020/12/15 09:47:31;;;;;;;8.67;5.40;;;11.60;99.90;;;;;;5096347;28;20201;-83
2020/12/15 09:49:57;;;;;;;7.73;4.80;;;11.60;99.90;;;;;;5092736;28;20640;-84
2020/12/15 09:52:25;;;;;;;8.77;4.70;;;11.60;99.90;;;;;;5092361;28;20318;-82
2020/12/15 09:54:51;;;;;;;6.67;5.10;;;11.60;99.90;;;;;;5093042;28;20197;-82
2020/12/15 09:57:18;;;;;;;9.47;5.40;;;11.70;99.90;;;;;;5093696;28;20282;-80
2020/12/15 09:59:45;;;;;;;8.57;5.23;;;11.70;99.90;;;;;;5092224;28;20256;-80
2020/12/15 10:02:12;;;;;;;7.10;5.57;;;11.70;99.90;;;;;;5092335;28;20320;-80
2020/12/15 10:04:38;;;;;;;10.97;5.13;;;11.70;99.90;;;;;;5089342;28;20940;-81
2020/12/15 10:07:04;;;;;;;11.23;7.27;;;11.60;99.90;;;;;;5091608;28;20195;-79
2020/12/15 10:09:31;;;;;;;10.37;6.40;;;11.60;99.90;;;;;;5092953;28;20197;-80
2020/12/15 10:11:57;;;;;;;6.63;5.70;;;11.60;99.90;;;;;;5077851;28;20196;-79
2020/12/15 10:14:23;;;;;;;8.93;6.07;;;11.60;99.90;;;;;;5094847;28;20226;-80
2020/12/15 10:16:51;;;;;;;7.70;5.67;;;11.60;99.90;;;;;;5085433;28;20226;-81
2020/12/15 10:19:17;;;;;;;10.07;5.50;;;11.60;99.90;;;;;;5087830;28;20644;-84
2020/12/15 10:21:44;;;;;;;9.17;5.90;;;11.60;99.90;;;;;;5094574;28;20249;-81
2020/12/15 10:24:10;;;;;;;10.43;6.07;;;11.50;99.90;;;;;;5076415;28;20222;-85
2020/12/15 10:26:37;;;;;;;8.87;5.90;;;11.40;99.90;;;;;;5082420;28;20214;-83
2020/12/15 10:29:03;;;;;;;7.57;5.53;;;11.40;99.90;;;;;;5085794;28;20202;-83
2020/12/15 10:31:30;;;;;;;8.43;5.93;;;11.30;99.90;;;;;;5087172;28;20676;-79
2020/12/15 10:33:57;;;;;;;8.53;6.13;;;11.40;99.90;;;;;;5094249;28;20671;-79
2020/12/15 10:36:23;;;;;;;9.77;6.27;;;11.30;99.90;;;;;;5090146;28;20207;-80
2020/12/15 10:38:50;;;;;;;7.70;6.30;;;11.40;99.90;;;;;;5095590;28;20201;-82
2020/12/15 10:41:24;;;;;;;9.50;6.17;;;11.40;99.90;;;;;;5091849;28;20242;-80
2020/12/15 10:43:50;;;;;;;11.10;6.43;;;11.40;99.90;;;;;;5094469;28;20281;-80
2020/12/15 10:46:22;;;;;;;10.47;6.23;;;11.40;99.90;;;;;;5090572;28;20678;-82
2020/12/15 10:48:49;;;;;;;10.40;6.20;;;11.30;99.90;;;;;;5085575;28;20237;-83
2020/12/15 10:51:16;;;;;;;9.07;6.63;;;11.30;99.90;;;;;;5084885;28;20211;-81
2020/12/15 10:53:44;;;;;;;9.47;6.27;;;11.30;99.90;;;;;;5085334;28;20786;-79
2020/12/15 10:56:13;;;;;;;7.73;6.20;;;11.30;99.90;;;;;;5085305;28;20247;-80
2020/12/15 10:58:40;;;;;;;7.77;6.23;;;11.40;99.90;;;;;;5082084;28;20217;-80
2020/12/15 11:01:07;;;;;;;8.70;6.10;;;11.50;99.90;;;;;;5084218;28;20690;-77
2020/12/15 11:03:34;;;;;;;9.50;6.43;;;11.40;99.90;;;;;;5088196;28;20196;-77
2020/12/15 11:06:02;;;;;;;9.20;6.37;;;11.40;99.90;;;;;;5086638;28;20208;-76
2020/12/15 11:08:29;;;;;;;8.83;6.37;;;11.50;99.90;;;;;;5093438;28;20201;-78
2020/12/15 11:10:56;;;;;;;7.73;5.93;;;11.50;99.90;;;;;;5094196;28;20202;-78
2020/12/15 11:13:22;;;;;;;10.20;6.60;;;11.50;99.90;;;;;;5078961;28;20225;-78
2020/12/15 11:15:49;;;;;;;8.93;6.37;;;11.60;99.90;;;;;;5089992;28;20230;-77
2020/12/15 11:18:16;;;;;;;10.60;6.33;;;11.70;99.90;;;;;;5073411;28;20331;-75
2020/12/15 11:20:42;;;;;;;7.10;6.10;;;11.80;99.90;;;;;;5092377;28;20225;-77
2020/12/15 11:23:08;;;;;;;8.23;6.07;;;11.70;99.90;;;;;;5093883;28;20198;-77
2020/12/15 11:25:36;;;;;;;8.60;6.20;;;11.80;99.90;;;;;;5087258;28;20292;-78
2020/12/15 11:28:02;;;;;;;9.90;6.40;;;11.90;99.90;;;;;;5073160;28;20210;-78
2020/12/15 11:30:29;;;;;;;9.43;6.60;;;11.80;99.90;;;;;;5079287;28;20613;-77
2020/12/15 11:32:55;;;;;;;8.03;6.40;;;11.90;99.90;;;;;;5077056;28;20651;-77
2020/12/15 11:35:21;;;;;;;12.23;6.37;;;11.80;99.90;;;;;;5085417;28;20309;-76
2020/12/15 11:37:48;;;;;;;7.80;6.17;;;11.90;99.90;;;;;;5080998;28;20214;-76
2020/12/15 11:40:15;;;;;;;10.23;6.77;;;11.90;99.90;;;;;;5080392;28;20217;-77
2020/12/15 11:42:42;;;;;;;9.53;6.63;;;12.00;99.90;;;;;;5086264;28;20202;-77
2020/12/15 11:45:09;;;;;;;9.00;6.30;;;11.90;99.90;;;;;;5092669;28;20281;-77
2020/12/15 11:47:36;;;;;;;8.40;6.53;;;11.90;99.90;;;;;;5076879;28;20380;-76
2020/12/15 11:50:03;;;;;;;8.80;6.57;;;11.90;99.90;;;;;;5092326;28;20203;-76
2020/12/15 11:52:30;;;;;;;9.10;6.00;;;11.80;99.90;;;;;;5086312;28;20639;-76
2020/12/15 11:54:56;;;;;;;8.33;6.53;;;11.80;99.90;;;;;;5083325;28;20198;-77
2020/12/15 11:57:22;;;;;;;7.57;6.00;;;11.90;99.90;;;;;;5078767;28;20278;-77
2020/12/15 11:59:50;;;;;;;12.13;6.57;;;11.90;99.90;;;;;;5084821;28;20329;-77
2020/12/15 12:02:17;;;;;;;7.90;6.30;;;11.90;99.90;;;;;;5086167;28;20655;-76
2020/12/15 12:04:43;;;;;;;11.67;6.67;;;12.00;99.90;;;;;;5087301;28;20259;-77
2020/12/15 12:07:10;;;;;;;8.53;6.27;;;12.00;99.90;;;;;;5087298;28;20203;-77
2020/12/15 12:09:37;;;;;;;8.03;6.03;;;12.10;99.90;;;;;;5079674;28;20199;-76
2020/12/15 12:12:04;;;;;;;7.90;6.10;;;12.10;99.90;;;;;;5080191;28;20216;-77
2020/12/15 12:14:31;;;;;;;9.77;6.77;;;12.30;99.90;;;;;;5074787;28;20771;-77
2020/12/15 12:16:58;;;;;;;9.90;6.47;;;12.30;99.90;;;;;;5076820;28;20286;-75
2020/12/15 12:19:25;;;;;;;11.50;6.50;;;12.20;99.90;;;;;;5089639;28;20642;-76
2020/12/15 12:21:51;;;;;;;8.83;6.53;;;12.20;99.90;;;;;;5084380;28;20329;-76
2020/12/15 12:24:17;;;;;;;11.27;7.13;;;12.20;99.90;;;;;;5086696;28;20282;-77
2020/12/15 12:26:44;;;;;;;10.53;7.27;;;12.10;99.90;;;;;;5086342;28;20282;-76
2020/12/15 12:29:10;;;;;;;9.00;6.80;;;12.10;99.90;;;;;;5076770;28;20234;-76
2020/12/15 12:31:37;;;;;;;10.17;6.73;;;12.10;99.90;;;;;;5081219;28;20291;-77
2020/12/15 12:34:04;;;;;;;8.67;7.00;;;12.00;99.90;;;;;;5079823;28;20225;-78
2020/12/15 12:36:31;;;;;;;8.70;6.53;;;12.00;99.90;;;;;;5084908;28;20206;-78
2020/12/15 12:38:58;;;;;;;9.63;7.10;;;11.90;99.90;;;;;;5072759;28;20209;-76
2020/12/15 12:41:24;;;;;;;10.87;7.37;;;11.90;99.90;;;;;;5072039;28;20218;-76
2020/12/15 12:43:51;;;;;;;8.33;6.57;;;12.10;99.90;;;;;;5074266;28;20222;-76
2020/12/15 12:46:17;;;;;;;8.90;6.53;;;12.30;99.90;;;;;;5073209;28;20290;-76